sensor_id;sensor_type;location;lat;lon;timestamp;P1;durP1;ratioP1;P2;durP2;ratioP2
27746;SDS011;15138;51.012;4.692;2023-06-04T00:01:43;2.42;;;1.25;;
27746;SDS011;15138;51.012;4.692;2023-06-04T00:04:12;3.50;;;1.10;;
27746;SDS011;15138;51.012;4.692;2023-06-04T00:06:40;4.70;;;1.52;;
27746;SDS011;15138;51.012;4.692;2023-06-04T00:09:08;5.60;;;1.20;;
27746;SDS011;15138;51.012;4.692;2023-06-04T00:11:37;2.00;;;1.17;;
27746;SDS011;15138;51.012;4.692;2023-06-04T00:14:05;1.77;;;1.10;;
27746;SDS011;15138;51.012;4.692;2023-06-04T00:16:34;2.38;;;1.30;;
27746;SDS011;15138;51.012;4.692;2023-06-04T00:19:04;2.22;;;1.15;;
27746;SDS011;15138;51.012;4.692;2023-06-04T00:21:32;2.88;;;1.70;;
27746;SDS011;15138;51.012;4.692;2023-06-04T00:24:01;5.13;;;1.27;;
27746;SDS011;15138;51.012;4.692;2023-06-04T00:26:30;4.93;;;1.23;;
27746;SDS011;15138;51.012;4.692;2023-06-04T00:28:58;3.58;;;1.10;;
27746;SDS011;15138;51.012;4.692;2023-06-04T00:31:27;2.25;;;1.13;;
27746;SDS011;15138;51.012;4.692;2023-06-04T00:33:55;1.70;;;1.10;;
27746;SDS011;15138;51.012;4.692;2023-06-04T00:36:25;2.08;;;0.98;;
27746;SDS011;15138;51.012;4.692;2023-06-04T00:38:53;1.92;;;1.20;;
27746;SDS011;15138;51.012;4.692;2023-06-04T00:41:21;3.05;;;1.45;;
27746;SDS011;15138;51.012;4.692;2023-06-04T00:43:49;1.83;;;1.30;;
27746;SDS011;15138;51.012;4.692;2023-06-04T00:46:23;3.65;;;1.17;;
27746;SDS011;15138;51.012;4.692;2023-06-04T00:48:52;4.05;;;1.40;;
27746;SDS011;15138;51.012;4.692;2023-06-04T00:51:21;5.78;;;1.30;;
27746;SDS011;15138;51.012;4.692;2023-06-04T00:53:51;2.55;;;1.30;;
27746;SDS011;15138;51.012;4.692;2023-06-04T00:56:19;1.95;;;1.20;;
27746;SDS011;15138;51.012;4.692;2023-06-04T00:58:47;5.40;;;1.60;;
27746;SDS011;15138;51.012;4.692;2023-06-04T01:01:18;3.80;;;1.52;;
27746;SDS011;15138;51.012;4.692;2023-06-04T01:03:53;3.10;;;1.40;;
27746;SDS011;15138;51.012;4.692;2023-06-04T01:06:25;2.83;;;1.30;;
27746;SDS011;15138;51.012;4.692;2023-06-04T01:09:00;2.67;;;1.38;;
27746;SDS011;15138;51.012;4.692;2023-06-04T01:11:33;3.33;;;1.40;;
27746;SDS011;15138;51.012;4.692;2023-06-04T01:14:02;3.38;;;1.60;;
27746;SDS011;15138;51.012;4.692;2023-06-04T01:16:34;3.05;;;1.80;;
27746;SDS011;15138;51.012;4.692;2023-06-04T01:19:11;4.32;;;1.40;;
27746;SDS011;15138;51.012;4.692;2023-06-04T01:21:48;5.20;;;1.63;;
27746;SDS011;15138;51.012;4.692;2023-06-04T01:24:22;3.97;;;1.67;;
27746;SDS011;15138;51.012;4.692;2023-06-04T01:29:23;3.55;;;1.70;;
27746;SDS011;15138;51.012;4.692;2023-06-04T01:31:56;3.90;;;1.80;;
27746;SDS011;15138;51.012;4.692;2023-06-04T01:34:25;2.90;;;1.77;;
27746;SDS011;15138;51.012;4.692;2023-06-04T01:36:53;4.90;;;2.00;;
27746;SDS011;15138;51.012;4.692;2023-06-04T01:39:22;6.45;;;1.92;;
27746;SDS011;15138;51.012;4.692;2023-06-04T01:41:51;4.03;;;1.90;;
27746;SDS011;15138;51.012;4.692;2023-06-04T01:44:19;4.18;;;1.80;;
27746;SDS011;15138;51.012;4.692;2023-06-04T01:46:47;3.22;;;1.63;;
27746;SDS011;15138;51.012;4.692;2023-06-04T01:49:15;3.83;;;1.90;;
27746;SDS011;15138;51.012;4.692;2023-06-04T01:51:44;7.18;;;2.33;;
27746;SDS011;15138;51.012;4.692;2023-06-04T01:54:12;3.55;;;2.13;;
27746;SDS011;15138;51.012;4.692;2023-06-04T01:56:41;3.47;;;1.98;;
27746;SDS011;15138;51.012;4.692;2023-06-04T01:59:09;4.82;;;2.00;;
27746;SDS011;15138;51.012;4.692;2023-06-04T02:01:38;8.88;;;2.08;;
27746;SDS011;15138;51.012;4.692;2023-06-04T02:04:06;4.53;;;2.10;;
27746;SDS011;15138;51.012;4.692;2023-06-04T02:06:35;2.88;;;1.98;;
27746;SDS011;15138;51.012;4.692;2023-06-04T02:09:03;6.00;;;2.25;;
27746;SDS011;15138;51.012;4.692;2023-06-04T02:11:32;4.90;;;2.42;;
27746;SDS011;15138;51.012;4.692;2023-06-04T02:14:02;4.43;;;2.60;;
27746;SDS011;15138;51.012;4.692;2023-06-04T02:16:30;5.32;;;2.10;;
27746;SDS011;15138;51.012;4.692;2023-06-04T02:18:58;3.40;;;1.77;;
27746;SDS011;15138;51.012;4.692;2023-06-04T02:21:27;6.25;;;2.30;;
27746;SDS011;15138;51.012;4.692;2023-06-04T02:23:55;4.55;;;2.53;;
27746;SDS011;15138;51.012;4.692;2023-06-04T02:26:23;7.93;;;2.60;;
27746;SDS011;15138;51.012;4.692;2023-06-04T02:28:51;5.15;;;2.08;;
27746;SDS011;15138;51.012;4.692;2023-06-04T02:31:21;5.28;;;1.88;;
27746;SDS011;15138;51.012;4.692;2023-06-04T02:33:49;4.50;;;2.13;;
27746;SDS011;15138;51.012;4.692;2023-06-04T02:36:17;5.53;;;2.20;;
27746;SDS011;15138;51.012;4.692;2023-06-04T02:38:46;6.20;;;2.33;;
27746;SDS011;15138;51.012;4.692;2023-06-04T02:41:14;4.63;;;1.80;;
27746;SDS011;15138;51.012;4.692;2023-06-04T02:43:43;4.47;;;2.40;;
27746;SDS011;15138;51.012;4.692;2023-06-04T02:46:11;4.78;;;2.10;;
27746;SDS011;15138;51.012;4.692;2023-06-04T02:48:40;5.53;;;2.00;;
27746;SDS011;15138;51.012;4.692;2023-06-04T02:51:09;4.32;;;2.03;;
27746;SDS011;15138;51.012;4.692;2023-06-04T02:53:38;6.07;;;2.33;;
27746;SDS011;15138;51.012;4.692;2023-06-04T02:56:07;5.18;;;2.30;;
27746;SDS011;15138;51.012;4.692;2023-06-04T02:58:35;4.10;;;2.10;;
27746;SDS011;15138;51.012;4.692;2023-06-04T03:01:06;6.43;;;2.35;;
27746;SDS011;15138;51.012;4.692;2023-06-04T03:03:35;3.13;;;1.95;;
27746;SDS011;15138;51.012;4.692;2023-06-04T03:06:05;4.15;;;2.35;;
27746;SDS011;15138;51.012;4.692;2023-06-04T03:08:33;5.88;;;1.90;;
27746;SDS011;15138;51.012;4.692;2023-06-04T03:11:01;4.40;;;1.95;;
27746;SDS011;15138;51.012;4.692;2023-06-04T03:13:29;4.93;;;1.80;;
27746;SDS011;15138;51.012;4.692;2023-06-04T03:15:57;3.88;;;1.80;;
27746;SDS011;15138;51.012;4.692;2023-06-04T03:18:27;7.25;;;2.25;;
27746;SDS011;15138;51.012;4.692;2023-06-04T03:20:56;3.05;;;2.00;;
27746;SDS011;15138;51.012;4.692;2023-06-04T03:23:27;6.22;;;2.20;;
27746;SDS011;15138;51.012;4.692;2023-06-04T03:25:55;6.15;;;2.30;;
27746;SDS011;15138;51.012;4.692;2023-06-04T03:28:23;3.20;;;1.70;;
27746;SDS011;15138;51.012;4.692;2023-06-04T03:30:51;3.90;;;2.00;;
27746;SDS011;15138;51.012;4.692;2023-06-04T03:33:20;4.78;;;1.92;;
27746;SDS011;15138;51.012;4.692;2023-06-04T03:35:48;5.10;;;1.98;;
27746;SDS011;15138;51.012;4.692;2023-06-04T03:38:17;3.60;;;1.98;;
27746;SDS011;15138;51.012;4.692;2023-06-04T03:40:46;1.95;;;1.52;;
27746;SDS011;15138;51.012;4.692;2023-06-04T03:43:16;3.83;;;1.60;;
27746;SDS011;15138;51.012;4.692;2023-06-04T03:45:44;4.25;;;1.73;;
27746;SDS011;15138;51.012;4.692;2023-06-04T03:48:12;5.70;;;2.00;;
27746;SDS011;15138;51.012;4.692;2023-06-04T03:50:40;5.63;;;2.05;;
27746;SDS011;15138;51.012;4.692;2023-06-04T03:53:10;2.40;;;1.60;;
27746;SDS011;15138;51.012;4.692;2023-06-04T03:55:38;4.20;;;1.95;;
27746;SDS011;15138;51.012;4.692;2023-06-04T03:58:08;3.58;;;1.80;;
27746;SDS011;15138;51.012;4.692;2023-06-04T04:00:37;2.67;;;1.85;;
27746;SDS011;15138;51.012;4.692;2023-06-04T04:03:06;2.92;;;1.77;;
27746;SDS011;15138;51.012;4.692;2023-06-04T04:05:36;5.40;;;2.17;;
27746;SDS011;15138;51.012;4.692;2023-06-04T04:08:04;4.80;;;1.50;;
27746;SDS011;15138;51.012;4.692;2023-06-04T04:10:35;7.60;;;2.22;;
27746;SDS011;15138;51.012;4.692;2023-06-04T04:13:03;5.70;;;2.08;;
27746;SDS011;15138;51.012;4.692;2023-06-04T04:15:33;5.03;;;2.00;;
27746;SDS011;15138;51.012;4.692;2023-06-04T04:18:01;3.65;;;1.80;;
27746;SDS011;15138;51.012;4.692;2023-06-04T04:20:30;10.77;;;1.92;;
27746;SDS011;15138;51.012;4.692;2023-06-04T04:22:58;6.00;;;1.90;;
27746;SDS011;15138;51.012;4.692;2023-06-04T04:25:27;4.53;;;1.80;;
27746;SDS011;15138;51.012;4.692;2023-06-04T04:27:55;4.32;;;2.10;;
27746;SDS011;15138;51.012;4.692;2023-06-04T04:30:26;5.25;;;1.98;;
27746;SDS011;15138;51.012;4.692;2023-06-04T04:32:56;4.20;;;2.13;;
27746;SDS011;15138;51.012;4.692;2023-06-04T04:35:24;3.65;;;1.65;;
27746;SDS011;15138;51.012;4.692;2023-06-04T04:37:53;4.50;;;2.10;;
27746;SDS011;15138;51.012;4.692;2023-06-04T04:40:21;7.78;;;1.80;;
27746;SDS011;15138;51.012;4.692;2023-06-04T04:42:49;2.85;;;1.80;;
27746;SDS011;15138;51.012;4.692;2023-06-04T04:45:18;6.63;;;2.05;;
27746;SDS011;15138;51.012;4.692;2023-06-04T04:47:46;2.97;;;2.17;;
27746;SDS011;15138;51.012;4.692;2023-06-04T04:50:18;5.85;;;2.28;;
27746;SDS011;15138;51.012;4.692;2023-06-04T04:52:47;2.80;;;1.52;;
27746;SDS011;15138;51.012;4.692;2023-06-04T04:55:15;3.90;;;1.98;;
27746;SDS011;15138;51.012;4.692;2023-06-04T04:57:44;2.97;;;1.60;;
27746;SDS011;15138;51.012;4.692;2023-06-04T05:00:12;2.75;;;1.88;;
27746;SDS011;15138;51.012;4.692;2023-06-04T05:02:42;10.02;;;2.70;;
27746;SDS011;15138;51.012;4.692;2023-06-04T05:05:10;7.65;;;2.47;;
27746;SDS011;15138;51.012;4.692;2023-06-04T05:07:40;4.97;;;2.15;;
27746;SDS011;15138;51.012;4.692;2023-06-04T05:10:08;4.88;;;1.50;;
27746;SDS011;15138;51.012;4.692;2023-06-04T05:12:37;2.65;;;1.50;;
27746;SDS011;15138;51.012;4.692;2023-06-04T05:15:05;3.58;;;2.00;;
27746;SDS011;15138;51.012;4.692;2023-06-04T05:17:34;2.42;;;1.80;;
27746;SDS011;15138;51.012;4.692;2023-06-04T05:20:07;6.93;;;2.03;;
27746;SDS011;15138;51.012;4.692;2023-06-04T05:22:39;7.05;;;2.90;;
27746;SDS011;15138;51.012;4.692;2023-06-04T05:25:08;3.83;;;1.80;;
27746;SDS011;15138;51.012;4.692;2023-06-04T05:27:37;4.97;;;2.30;;
27746;SDS011;15138;51.012;4.692;2023-06-04T05:30:08;3.85;;;1.75;;
27746;SDS011;15138;51.012;4.692;2023-06-04T05:32:37;4.90;;;2.10;;
27746;SDS011;15138;51.012;4.692;2023-06-04T05:35:08;7.93;;;2.00;;
27746;SDS011;15138;51.012;4.692;2023-06-04T05:37:37;5.15;;;2.60;;
27746;SDS011;15138;51.012;4.692;2023-06-04T05:40:08;4.18;;;2.17;;
27746;SDS011;15138;51.012;4.692;2023-06-04T05:42:37;9.15;;;2.45;;
27746;SDS011;15138;51.012;4.692;2023-06-04T05:45:06;3.45;;;1.92;;
27746;SDS011;15138;51.012;4.692;2023-06-04T05:47:36;5.95;;;2.13;;
27746;SDS011;15138;51.012;4.692;2023-06-04T05:50:05;3.95;;;2.50;;
27746;SDS011;15138;51.012;4.692;2023-06-04T05:52:36;5.05;;;2.40;;
27746;SDS011;15138;51.012;4.692;2023-06-04T05:55:04;9.95;;;2.75;;
27746;SDS011;15138;51.012;4.692;2023-06-04T05:57:35;7.03;;;2.55;;
27746;SDS011;15138;51.012;4.692;2023-06-04T06:00:04;6.90;;;2.67;;
27746;SDS011;15138;51.012;4.692;2023-06-04T06:02:37;5.75;;;2.50;;
27746;SDS011;15138;51.012;4.692;2023-06-04T06:05:06;3.70;;;1.88;;
27746;SDS011;15138;51.012;4.692;2023-06-04T06:07:35;6.25;;;2.33;;
27746;SDS011;15138;51.012;4.692;2023-06-04T06:10:03;3.33;;;1.80;;
27746;SDS011;15138;51.012;4.692;2023-06-04T06:12:32;7.82;;;2.70;;
27746;SDS011;15138;51.012;4.692;2023-06-04T06:15:02;3.83;;;1.60;;
27746;SDS011;15138;51.012;4.692;2023-06-04T06:17:32;3.47;;;2.33;;
27746;SDS011;15138;51.012;4.692;2023-06-04T06:20:00;4.22;;;2.10;;
27746;SDS011;15138;51.012;4.692;2023-06-04T06:22:32;5.72;;;2.50;;
27746;SDS011;15138;51.012;4.692;2023-06-04T06:25:01;3.38;;;2.05;;
27746;SDS011;15138;51.012;4.692;2023-06-04T06:27:32;4.10;;;1.63;;
27746;SDS011;15138;51.012;4.692;2023-06-04T06:30:00;5.30;;;2.40;;
27746;SDS011;15138;51.012;4.692;2023-06-04T06:32:30;3.95;;;1.90;;
27746;SDS011;15138;51.012;4.692;2023-06-04T06:34:58;6.78;;;2.38;;
27746;SDS011;15138;51.012;4.692;2023-06-04T06:37:27;5.65;;;2.05;;
27746;SDS011;15138;51.012;4.692;2023-06-04T06:39:55;5.63;;;2.42;;
27746;SDS011;15138;51.012;4.692;2023-06-04T06:42:23;4.00;;;1.92;;
27746;SDS011;15138;51.012;4.692;2023-06-04T06:44:52;4.75;;;1.88;;
27746;SDS011;15138;51.012;4.692;2023-06-04T06:47:21;7.28;;;2.15;;
27746;SDS011;15138;51.012;4.692;2023-06-04T06:49:50;2.80;;;1.70;;
27746;SDS011;15138;51.012;4.692;2023-06-04T06:52:19;5.22;;;1.60;;
27746;SDS011;15138;51.012;4.692;2023-06-04T06:54:47;4.10;;;2.10;;
27746;SDS011;15138;51.012;4.692;2023-06-04T06:57:16;5.05;;;1.90;;
27746;SDS011;15138;51.012;4.692;2023-06-04T06:59:44;4.00;;;2.13;;
27746;SDS011;15138;51.012;4.692;2023-06-04T07:02:18;7.97;;;2.22;;
27746;SDS011;15138;51.012;4.692;2023-06-04T07:04:46;3.67;;;1.63;;
27746;SDS011;15138;51.012;4.692;2023-06-04T07:07:16;2.90;;;1.73;;
27746;SDS011;15138;51.012;4.692;2023-06-04T07:09:45;4.45;;;1.80;;
27746;SDS011;15138;51.012;4.692;2023-06-04T07:12:14;4.85;;;1.50;;
27746;SDS011;15138;51.012;4.692;2023-06-04T07:14:42;4.18;;;1.40;;
27746;SDS011;15138;51.012;4.692;2023-06-04T07:17:11;4.20;;;1.50;;
27746;SDS011;15138;51.012;4.692;2023-06-04T07:19:40;6.38;;;1.88;;
27746;SDS011;15138;51.012;4.692;2023-06-04T07:22:08;3.35;;;1.75;;
27746;SDS011;15138;51.012;4.692;2023-06-04T07:24:38;2.25;;;1.13;;
27746;SDS011;15138;51.012;4.692;2023-06-04T07:27:10;2.63;;;1.70;;
27746;SDS011;15138;51.012;4.692;2023-06-04T07:29:39;4.15;;;1.55;;
27746;SDS011;15138;51.012;4.692;2023-06-04T07:32:08;2.97;;;1.55;;
27746;SDS011;15138;51.012;4.692;2023-06-04T07:34:37;8.30;;;1.75;;
27746;SDS011;15138;51.012;4.692;2023-06-04T07:37:06;3.58;;;1.33;;
27746;SDS011;15138;51.012;4.692;2023-06-04T07:39:36;2.53;;;1.50;;
27746;SDS011;15138;51.012;4.692;2023-06-04T07:42:06;3.42;;;1.48;;
27746;SDS011;15138;51.012;4.692;2023-06-04T07:44:36;2.35;;;1.23;;
27746;SDS011;15138;51.012;4.692;2023-06-04T07:47:05;3.65;;;1.20;;
27746;SDS011;15138;51.012;4.692;2023-06-04T07:49:33;3.13;;;1.50;;
27746;SDS011;15138;51.012;4.692;2023-06-04T07:52:12;3.90;;;1.38;;
27746;SDS011;15138;51.012;4.692;2023-06-04T07:54:41;8.07;;;1.80;;
27746;SDS011;15138;51.012;4.692;2023-06-04T07:57:11;3.80;;;1.98;;
27746;SDS011;15138;51.012;4.692;2023-06-04T07:59:40;6.18;;;1.48;;
27746;SDS011;15138;51.012;4.692;2023-06-04T08:02:08;3.78;;;1.60;;
27746;SDS011;15138;51.012;4.692;2023-06-04T08:04:37;3.47;;;1.30;;
27746;SDS011;15138;51.012;4.692;2023-06-04T08:07:06;8.00;;;1.30;;
27746;SDS011;15138;51.012;4.692;2023-06-04T08:09:34;6.40;;;1.48;;
27746;SDS011;15138;51.012;4.692;2023-06-04T08:12:03;5.53;;;1.50;;
27746;SDS011;15138;51.012;4.692;2023-06-04T08:14:37;2.65;;;1.20;;
27746;SDS011;15138;51.012;4.692;2023-06-04T08:17:05;5.03;;;1.60;;
27746;SDS011;15138;51.012;4.692;2023-06-04T08:19:33;11.82;;;1.50;;
27746;SDS011;15138;51.012;4.692;2023-06-04T08:22:03;5.65;;;1.35;;
27746;SDS011;15138;51.012;4.692;2023-06-04T08:24:32;4.28;;;1.70;;
27746;SDS011;15138;51.012;4.692;2023-06-04T08:27:01;9.88;;;1.60;;
27746;SDS011;15138;51.012;4.692;2023-06-04T08:29:29;5.38;;;1.27;;
27746;SDS011;15138;51.012;4.692;2023-06-04T08:31:59;2.65;;;1.20;;
27746;SDS011;15138;51.012;4.692;2023-06-04T08:34:27;3.90;;;1.58;;
27746;SDS011;15138;51.012;4.692;2023-06-04T08:36:56;4.47;;;1.45;;
27746;SDS011;15138;51.012;4.692;2023-06-04T08:39:24;5.53;;;1.23;;
27746;SDS011;15138;51.012;4.692;2023-06-04T08:41:54;9.05;;;1.63;;
27746;SDS011;15138;51.012;4.692;2023-06-04T08:44:24;5.75;;;1.48;;
27746;SDS011;15138;51.012;4.692;2023-06-04T08:46:53;6.07;;;1.70;;
27746;SDS011;15138;51.012;4.692;2023-06-04T08:49:26;10.90;;;1.48;;
27746;SDS011;15138;51.012;4.692;2023-06-04T08:51:57;5.07;;;1.58;;
27746;SDS011;15138;51.012;4.692;2023-06-04T08:54:25;6.15;;;1.25;;
27746;SDS011;15138;51.012;4.692;2023-06-04T08:56:55;3.33;;;1.20;;
27746;SDS011;15138;51.012;4.692;2023-06-04T08:59:24;3.33;;;0.98;;
27746;SDS011;15138;51.012;4.692;2023-06-04T09:01:53;6.22;;;1.27;;
27746;SDS011;15138;51.012;4.692;2023-06-04T09:04:22;9.20;;;1.20;;
27746;SDS011;15138;51.012;4.692;2023-06-04T09:06:52;2.83;;;1.38;;
27746;SDS011;15138;51.012;4.692;2023-06-04T09:09:22;3.53;;;1.25;;
27746;SDS011;15138;51.012;4.692;2023-06-04T09:11:52;2.97;;;1.20;;
27746;SDS011;15138;51.012;4.692;2023-06-04T09:14:23;4.68;;;1.30;;
27746;SDS011;15138;51.012;4.692;2023-06-04T09:16:52;4.57;;;1.10;;
27746;SDS011;15138;51.012;4.692;2023-06-04T09:19:25;2.40;;;1.17;;
27746;SDS011;15138;51.012;4.692;2023-06-04T09:21:55;2.63;;;0.90;;
27746;SDS011;15138;51.012;4.692;2023-06-04T09:24:25;5.20;;;1.10;;
27746;SDS011;15138;51.012;4.692;2023-06-04T09:27:09;3.90;;;1.67;;
27746;SDS011;15138;51.012;4.692;2023-06-04T09:29:39;4.30;;;1.00;;
27746;SDS011;15138;51.012;4.692;2023-06-04T09:32:07;8.55;;;1.40;;
27746;SDS011;15138;51.012;4.692;2023-06-04T09:34:36;4.53;;;1.20;;
27746;SDS011;15138;51.012;4.692;2023-06-04T09:39:41;8.35;;;1.52;;
27746;SDS011;15138;51.012;4.692;2023-06-04T09:42:09;2.70;;;1.35;;
27746;SDS011;15138;51.012;4.692;2023-06-04T09:44:42;3.55;;;1.38;;
27746;SDS011;15138;51.012;4.692;2023-06-04T09:47:12;2.63;;;1.20;;
27746;SDS011;15138;51.012;4.692;2023-06-04T09:49:40;1.77;;;0.90;;
27746;SDS011;15138;51.012;4.692;2023-06-04T09:52:09;4.53;;;1.33;;
27746;SDS011;15138;51.012;4.692;2023-06-04T09:54:39;2.72;;;1.10;;
27746;SDS011;15138;51.012;4.692;2023-06-04T09:57:14;4.75;;;1.40;;
27746;SDS011;15138;51.012;4.692;2023-06-04T10:02:12;5.43;;;1.10;;
27746;SDS011;15138;51.012;4.692;2023-06-04T10:04:41;5.80;;;1.35;;
27746;SDS011;15138;51.012;4.692;2023-06-04T10:07:11;9.93;;;1.58;;
27746;SDS011;15138;51.012;4.692;2023-06-04T10:09:39;2.55;;;1.08;;
27746;SDS011;15138;51.012;4.692;2023-06-04T10:12:14;3.53;;;1.35;;
27746;SDS011;15138;51.012;4.692;2023-06-04T10:14:45;1.83;;;1.13;;
27746;SDS011;15138;51.012;4.692;2023-06-04T10:17:16;5.90;;;1.30;;
27746;SDS011;15138;51.012;4.692;2023-06-04T10:19:45;3.58;;;1.10;;
27746;SDS011;15138;51.012;4.692;2023-06-04T10:22:15;2.30;;;1.33;;
27746;SDS011;15138;51.012;4.692;2023-06-04T10:24:43;4.47;;;1.20;;
27746;SDS011;15138;51.012;4.692;2023-06-04T10:27:14;1.67;;;1.02;;
27746;SDS011;15138;51.012;4.692;2023-06-04T10:29:46;1.95;;;1.10;;
27746;SDS011;15138;51.012;4.692;2023-06-04T10:32:15;7.80;;;1.20;;
27746;SDS011;15138;51.012;4.692;2023-06-04T10:34:45;3.58;;;1.10;;
27746;SDS011;15138;51.012;4.692;2023-06-04T10:37:18;5.82;;;1.38;;
27746;SDS011;15138;51.012;4.692;2023-06-04T10:39:50;2.22;;;1.10;;
27746;SDS011;15138;51.012;4.692;2023-06-04T10:42:20;6.88;;;1.27;;
27746;SDS011;15138;51.012;4.692;2023-06-04T10:44:49;7.72;;;1.50;;
27746;SDS011;15138;51.012;4.692;2023-06-04T10:47:23;2.60;;;1.23;;
27746;SDS011;15138;51.012;4.692;2023-06-04T10:49:52;6.95;;;1.40;;
27746;SDS011;15138;51.012;4.692;2023-06-04T10:52:21;3.78;;;1.33;;
27746;SDS011;15138;51.012;4.692;2023-06-04T10:54:49;2.80;;;0.98;;
27746;SDS011;15138;51.012;4.692;2023-06-04T10:57:21;4.65;;;1.70;;
27746;SDS011;15138;51.012;4.692;2023-06-04T10:59:53;4.95;;;1.13;;
27746;SDS011;15138;51.012;4.692;2023-06-04T11:02:22;3.83;;;1.48;;
27746;SDS011;15138;51.012;4.692;2023-06-04T11:04:58;3.28;;;1.42;;
27746;SDS011;15138;51.012;4.692;2023-06-04T11:07:29;2.92;;;1.30;;
27746;SDS011;15138;51.012;4.692;2023-06-04T11:09:57;3.67;;;1.10;;
27746;SDS011;15138;51.012;4.692;2023-06-04T11:12:27;4.35;;;1.13;;
27746;SDS011;15138;51.012;4.692;2023-06-04T11:14:56;2.95;;;1.30;;
27746;SDS011;15138;51.012;4.692;2023-06-04T11:17:26;5.07;;;1.40;;
27746;SDS011;15138;51.012;4.692;2023-06-04T11:19:56;2.33;;;1.45;;
27746;SDS011;15138;51.012;4.692;2023-06-04T11:22:26;5.18;;;1.30;;
27746;SDS011;15138;51.012;4.692;2023-06-04T11:24:56;2.42;;;1.20;;
27746;SDS011;15138;51.012;4.692;2023-06-04T11:27:25;4.72;;;1.27;;
27746;SDS011;15138;51.012;4.692;2023-06-04T11:30:04;7.82;;;1.33;;
27746;SDS011;15138;51.012;4.692;2023-06-04T11:32:35;3.30;;;1.13;;
27746;SDS011;15138;51.012;4.692;2023-06-04T11:35:03;2.05;;;1.30;;
27746;SDS011;15138;51.012;4.692;2023-06-04T11:37:34;5.60;;;1.50;;
27746;SDS011;15138;51.012;4.692;2023-06-04T11:40:03;3.17;;;1.40;;
27746;SDS011;15138;51.012;4.692;2023-06-04T11:42:32;3.13;;;1.20;;
27746;SDS011;15138;51.012;4.692;2023-06-04T11:45:04;3.28;;;1.55;;
27746;SDS011;15138;51.012;4.692;2023-06-04T11:47:34;3.67;;;1.25;;
27746;SDS011;15138;51.012;4.692;2023-06-04T11:50:04;5.28;;;1.20;;
27746;SDS011;15138;51.012;4.692;2023-06-04T11:52:36;2.35;;;1.20;;
27746;SDS011;15138;51.012;4.692;2023-06-04T11:55:05;6.95;;;1.40;;
27746;SDS011;15138;51.012;4.692;2023-06-04T11:57:36;5.35;;;1.27;;
27746;SDS011;15138;51.012;4.692;2023-06-04T12:00:07;4.40;;;1.30;;
27746;SDS011;15138;51.012;4.692;2023-06-04T12:02:37;2.00;;;1.15;;
27746;SDS011;15138;51.012;4.692;2023-06-04T12:05:12;2.28;;;1.15;;
27746;SDS011;15138;51.012;4.692;2023-06-04T12:07:41;2.28;;;1.25;;
27746;SDS011;15138;51.012;4.692;2023-06-04T12:10:09;1.15;;;0.80;;
27746;SDS011;15138;51.012;4.692;2023-06-04T12:12:39;3.83;;;1.10;;
27746;SDS011;15138;51.012;4.692;2023-06-04T12:15:09;5.13;;;1.23;;
27746;SDS011;15138;51.012;4.692;2023-06-04T12:17:48;2.38;;;1.13;;
27746;SDS011;15138;51.012;4.692;2023-06-04T12:20:17;4.53;;;1.33;;
27746;SDS011;15138;51.012;4.692;2023-06-04T12:22:46;5.40;;;1.10;;
27746;SDS011;15138;51.012;4.692;2023-06-04T12:25:24;1.55;;;1.13;;
27746;SDS011;15138;51.012;4.692;2023-06-04T12:27:53;4.80;;;1.65;;
27746;SDS011;15138;51.012;4.692;2023-06-04T12:30:31;2.08;;;1.17;;
27746;SDS011;15138;51.012;4.692;2023-06-04T12:33:03;3.22;;;1.35;;
27746;SDS011;15138;51.012;4.692;2023-06-04T12:35:31;2.72;;;1.20;;
27746;SDS011;15138;51.012;4.692;2023-06-04T12:38:02;7.30;;;1.30;;
27746;SDS011;15138;51.012;4.692;2023-06-04T12:40:30;3.28;;;1.00;;
27746;SDS011;15138;51.012;4.692;2023-06-04T12:42:59;2.65;;;1.10;;
27746;SDS011;15138;51.012;4.692;2023-06-04T12:45:29;3.40;;;1.20;;
27746;SDS011;15138;51.012;4.692;2023-06-04T12:47:58;2.85;;;1.30;;
27746;SDS011;15138;51.012;4.692;2023-06-04T12:50:27;4.25;;;1.13;;
27746;SDS011;15138;51.012;4.692;2023-06-04T12:52:55;3.50;;;1.25;;
27746;SDS011;15138;51.012;4.692;2023-06-04T12:55:23;1.83;;;1.02;;
27746;SDS011;15138;51.012;4.692;2023-06-04T12:57:53;1.48;;;1.00;;
27746;SDS011;15138;51.012;4.692;2023-06-04T13:00:22;5.30;;;1.20;;
27746;SDS011;15138;51.012;4.692;2023-06-04T13:02:52;2.67;;;1.02;;
27746;SDS011;15138;51.012;4.692;2023-06-04T13:05:21;2.30;;;1.15;;
27746;SDS011;15138;51.012;4.692;2023-06-04T13:07:49;2.67;;;1.15;;
27746;SDS011;15138;51.012;4.692;2023-06-04T13:10:18;3.83;;;1.17;;
27746;SDS011;15138;51.012;4.692;2023-06-04T13:12:46;3.53;;;1.27;;
27746;SDS011;15138;51.012;4.692;2023-06-04T13:15:15;3.00;;;1.02;;
27746;SDS011;15138;51.012;4.692;2023-06-04T13:17:43;3.97;;;1.30;;
27746;SDS011;15138;51.012;4.692;2023-06-04T13:20:13;3.95;;;1.27;;
27746;SDS011;15138;51.012;4.692;2023-06-04T13:22:41;2.13;;;1.25;;
27746;SDS011;15138;51.012;4.692;2023-06-04T13:25:10;2.05;;;1.10;;
27746;SDS011;15138;51.012;4.692;2023-06-04T13:27:39;2.17;;;1.00;;
27746;SDS011;15138;51.012;4.692;2023-06-04T13:30:08;3.85;;;1.10;;
27746;SDS011;15138;51.012;4.692;2023-06-04T13:32:37;5.13;;;1.40;;
27746;SDS011;15138;51.012;4.692;2023-06-04T13:35:06;2.28;;;1.10;;
27746;SDS011;15138;51.012;4.692;2023-06-04T13:37:36;3.92;;;1.20;;
27746;SDS011;15138;51.012;4.692;2023-06-04T13:40:05;1.77;;;1.20;;
27746;SDS011;15138;51.012;4.692;2023-06-04T13:42:34;2.03;;;1.20;;
27746;SDS011;15138;51.012;4.692;2023-06-04T13:45:03;3.45;;;1.30;;
27746;SDS011;15138;51.012;4.692;2023-06-04T13:47:32;2.50;;;1.02;;
27746;SDS011;15138;51.012;4.692;2023-06-04T13:50:00;3.70;;;1.10;;
27746;SDS011;15138;51.012;4.692;2023-06-04T13:52:29;3.20;;;1.50;;
27746;SDS011;15138;51.012;4.692;2023-06-04T13:55:00;1.73;;;1.23;;
27746;SDS011;15138;51.012;4.692;2023-06-04T13:57:28;4.63;;;1.45;;
27746;SDS011;15138;51.012;4.692;2023-06-04T13:59:56;2.55;;;1.20;;
27746;SDS011;15138;51.012;4.692;2023-06-04T14:02:25;1.83;;;1.20;;
27746;SDS011;15138;51.012;4.692;2023-06-04T14:04:53;5.93;;;1.55;;
27746;SDS011;15138;51.012;4.692;2023-06-04T14:07:21;3.10;;;1.17;;
27746;SDS011;15138;51.012;4.692;2023-06-04T14:09:50;3.05;;;1.60;;
27746;SDS011;15138;51.012;4.692;2023-06-04T14:12:22;2.17;;;1.30;;
27746;SDS011;15138;51.012;4.692;2023-06-04T14:14:51;2.42;;;1.40;;
27746;SDS011;15138;51.012;4.692;2023-06-04T14:17:19;3.53;;;1.40;;
27746;SDS011;15138;51.012;4.692;2023-06-04T14:19:48;1.60;;;1.20;;
27746;SDS011;15138;51.012;4.692;2023-06-04T14:22:16;2.83;;;1.40;;
27746;SDS011;15138;51.012;4.692;2023-06-04T14:24:44;4.90;;;1.45;;
27746;SDS011;15138;51.012;4.692;2023-06-04T14:27:13;3.42;;;1.17;;
27746;SDS011;15138;51.012;4.692;2023-06-04T14:29:42;3.50;;;1.25;;
27746;SDS011;15138;51.012;4.692;2023-06-04T14:32:11;3.08;;;1.63;;
27746;SDS011;15138;51.012;4.692;2023-06-04T14:34:39;2.90;;;1.40;;
27746;SDS011;15138;51.012;4.692;2023-06-04T14:37:07;4.25;;;1.60;;
27746;SDS011;15138;51.012;4.692;2023-06-04T14:39:36;4.00;;;1.23;;
27746;SDS011;15138;51.012;4.692;2023-06-04T14:42:04;3.35;;;1.20;;
27746;SDS011;15138;51.012;4.692;2023-06-04T14:44:33;7.03;;;1.42;;
27746;SDS011;15138;51.012;4.692;2023-06-04T14:47:03;3.17;;;1.27;;
27746;SDS011;15138;51.012;4.692;2023-06-04T14:49:31;5.05;;;1.13;;
27746;SDS011;15138;51.012;4.692;2023-06-04T14:52:00;2.70;;;1.38;;
27746;SDS011;15138;51.012;4.692;2023-06-04T14:54:28;5.50;;;1.30;;
27746;SDS011;15138;51.012;4.692;2023-06-04T14:56:57;6.97;;;1.42;;
27746;SDS011;15138;51.012;4.692;2023-06-04T14:59:28;1.58;;;1.10;;
27746;SDS011;15138;51.012;4.692;2023-06-04T15:01:56;4.88;;;1.30;;
27746;SDS011;15138;51.012;4.692;2023-06-04T15:04:26;2.63;;;1.17;;
27746;SDS011;15138;51.012;4.692;2023-06-04T15:06:54;3.30;;;1.40;;
27746;SDS011;15138;51.012;4.692;2023-06-04T15:09:23;1.85;;;1.25;;